sensor_id;sensor_type;location;lat;lon;timestamp;pressure;altitude;pressure_sealevel;temperature;humidity
64064;BME280;50314;50.618;10.642;2023-03-04T00:00:29;97138.31;;;15.41;20.45
64064;BME280;50314;50.618;10.642;2023-03-04T00:02:54;97138.41;;;15.39;20.18
64064;BME280;50314;50.618;10.642;2023-03-04T00:05:20;97132.25;;;15.39;20.25
64064;BME280;50314;50.618;10.642;2023-03-04T00:07:45;97131.41;;;15.38;20.43
64064;BME280;50314;50.618;10.642;2023-03-04T00:10:10;97135.06;;;15.37;20.18
64064;BME280;50314;50.618;10.642;2023-03-04T00:12:36;97136.00;;;15.36;20.53
64064;BME280;50314;50.618;10.642;2023-03-04T00:15:02;97128.03;;;15.36;20.31
64064;BME280;50314;50.618;10.642;2023-03-04T00:17:27;97129.19;;;15.34;20.54
64064;BME280;50314;50.618;10.642;2023-03-04T00:19:56;97130.13;;;15.33;20.58
64064;BME280;50314;50.618;10.642;2023-03-04T00:22:21;97135.44;;;15.33;20.62
64064;BME280;50314;50.618;10.642;2023-03-04T00:24:47;97135.59;;;15.31;20.24
64064;BME280;50314;50.618;10.642;2023-03-04T00:27:12;97124.13;;;15.31;20.69
64064;BME280;50314;50.618;10.642;2023-03-04T00:29:38;97131.94;;;15.32;20.58
64064;BME280;50314;50.618;10.642;2023-03-04T00:32:03;97130.38;;;15.30;20.31
64064;BME280;50314;50.618;10.642;2023-03-04T00:34:29;97132.22;;;15.29;20.69
64064;BME280;50314;50.618;10.642;2023-03-04T00:36:54;97130.53;;;15.28;20.42
64064;BME280;50314;50.618;10.642;2023-03-04T00:39:26;97126.22;;;15.27;20.23
64064;BME280;50314;50.618;10.642;2023-03-04T00:41:52;97133.31;;;15.26;20.79
64064;BME280;50314;50.618;10.642;2023-03-04T00:44:18;97125.50;;;15.25;20.47
64064;BME280;50314;50.618;10.642;2023-03-04T00:46:43;97127.44;;;15.23;20.42
64064;BME280;50314;50.618;10.642;2023-03-04T00:49:08;97123.94;;;15.22;20.71
64064;BME280;50314;50.618;10.642;2023-03-04T00:51:34;97124.09;;;15.21;20.43
64064;BME280;50314;50.618;10.642;2023-03-04T00:53:59;97125.06;;;15.20;20.62
64064;BME280;50314;50.618;10.642;2023-03-04T00:56:25;97127.72;;;15.20;20.65
64064;BME280;50314;50.618;10.642;2023-03-04T00:58:50;97122.41;;;15.20;20.38
64064;BME280;50314;50.618;10.642;2023-03-04T01:01:16;97117.09;;;15.20;20.62
64064;BME280;50314;50.618;10.642;2023-03-04T01:03:41;97113.72;;;15.18;20.50
64064;BME280;50314;50.618;10.642;2023-03-04T01:06:07;97113.72;;;15.18;20.51
64064;BME280;50314;50.618;10.642;2023-03-04T01:08:33;97111.91;;;15.18;20.57
64064;BME280;50314;50.618;10.642;2023-03-04T01:10:58;97102.28;;;15.17;20.54
64064;BME280;50314;50.618;10.642;2023-03-04T01:13:24;97106.75;;;15.17;20.42
64064;BME280;50314;50.618;10.642;2023-03-04T01:15:49;97103.38;;;15.15;20.51
64064;BME280;50314;50.618;10.642;2023-03-04T01:18:14;97101.72;;;15.14;20.74
64064;BME280;50314;50.618;10.642;2023-03-04T01:20:40;97090.25;;;15.13;20.53
64064;BME280;50314;50.618;10.642;2023-03-04T01:23:05;97091.09;;;15.14;20.78
64064;BME280;50314;50.618;10.642;2023-03-04T01:25:31;97084.97;;;15.13;20.71
64064;BME280;50314;50.618;10.642;2023-03-04T01:27:57;97082.31;;;15.13;20.45
64064;BME280;50314;50.618;10.642;2023-03-04T01:30:22;97087.72;;;15.12;20.58
64064;BME280;50314;50.618;10.642;2023-03-04T01:32:48;97074.59;;;15.10;20.88
64064;BME280;50314;50.618;10.642;2023-03-04T01:35:13;97077.38;;;15.09;20.53
64064;BME280;50314;50.618;10.642;2023-03-04T01:37:39;97076.53;;;15.08;20.62
64064;BME280;50314;50.618;10.642;2023-03-04T01:40:05;97061.44;;;15.09;20.70
64064;BME280;50314;50.618;10.642;2023-03-04T01:42:32;97064.09;;;15.09;20.74
64064;BME280;50314;50.618;10.642;2023-03-04T01:44:59;97064.09;;;15.09;20.58
64064;BME280;50314;50.618;10.642;2023-03-04T01:47:27;97066.75;;;15.09;20.90
64064;BME280;50314;50.618;10.642;2023-03-04T01:49:55;97060.63;;;15.08;20.84
64064;BME280;50314;50.618;10.642;2023-03-04T01:52:20;97058.69;;;15.10;20.85
64064;BME280;50314;50.618;10.642;2023-03-04T01:54:47;97053.38;;;15.10;20.61
64064;BME280;50314;50.618;10.642;2023-03-04T01:57:34;97049.44;;;15.04;20.81
64064;BME280;50314;50.618;10.642;2023-03-04T02:02:45;97043.97;;;15.06;21.01
64064;BME280;50314;50.618;10.642;2023-03-04T02:05:11;97037.72;;;15.07;20.94
64064;BME280;50314;50.618;10.642;2023-03-04T02:07:37;97044.84;;;15.07;20.93
64064;BME280;50314;50.618;10.642;2023-03-04T02:10:03;97051.81;;;15.08;20.90
64064;BME280;50314;50.618;10.642;2023-03-04T02:12:29;97037.56;;;15.09;20.86
64064;BME280;50314;50.618;10.642;2023-03-04T02:14:54;97040.22;;;15.09;20.88
64064;BME280;50314;50.618;10.642;2023-03-04T02:17:27;97044.13;;;15.04;20.75
64064;BME280;50314;50.618;10.642;2023-03-04T02:22:22;97045.81;;;15.06;20.90
64064;BME280;50314;50.618;10.642;2023-03-04T02:24:59;97045.22;;;15.02;21.09
64064;BME280;50314;50.618;10.642;2023-03-04T02:27:26;97042.19;;;15.07;21.07
64064;BME280;50314;50.618;10.642;2023-03-04T02:29:52;97035.19;;;15.06;21.02
64064;BME280;50314;50.618;10.642;2023-03-04T02:32:17;97032.53;;;15.06;20.71
64064;BME280;50314;50.618;10.642;2023-03-04T02:34:48;97026.53;;;15.03;20.80
64064;BME280;50314;50.618;10.642;2023-03-04T02:37:14;97033.53;;;15.04;20.97
64064;BME280;50314;50.618;10.642;2023-03-04T02:39:42;97026.53;;;15.03;20.92
64064;BME280;50314;50.618;10.642;2023-03-04T02:42:09;97030.88;;;15.04;20.98
64064;BME280;50314;50.618;10.642;2023-03-04T02:44:43;97026.66;;;15.02;21.15
64064;BME280;50314;50.618;10.642;2023-03-04T02:47:12;97015.94;;;15.03;20.83
64064;BME280;50314;50.618;10.642;2023-03-04T02:49:40;97022.06;;;15.04;20.86
64064;BME280;50314;50.618;10.642;2023-03-04T02:52:09;97015.22;;;15.01;21.04
64064;BME280;50314;50.618;10.642;2023-03-04T02:54:37;97013.28;;;15.03;21.05
64064;BME280;50314;50.618;10.642;2023-03-04T02:57:05;97012.56;;;15.01;20.91
64064;BME280;50314;50.618;10.642;2023-03-04T02:59:31;97005.31;;;15.03;21.19
64064;BME280;50314;50.618;10.642;2023-03-04T03:01:57;96999.31;;;15.01;21.21
64064;BME280;50314;50.618;10.642;2023-03-04T03:04:23;97000.28;;;15.00;20.91
64064;BME280;50314;50.618;10.642;2023-03-04T03:06:49;97001.97;;;15.01;20.80
64064;BME280;50314;50.618;10.642;2023-03-04T03:09:15;96992.31;;;15.00;21.00
64064;BME280;50314;50.618;10.642;2023-03-04T03:11:40;96990.50;;;15.01;20.89
64064;BME280;50314;50.618;10.642;2023-03-04T03:14:06;96987.97;;;14.99;21.15
64064;BME280;50314;50.618;10.642;2023-03-04T03:16:32;96992.44;;;14.99;21.24
64064;BME280;50314;50.618;10.642;2023-03-04T03:18:57;96995.94;;;14.99;21.29
64064;BME280;50314;50.618;10.642;2023-03-04T03:21:23;97001.25;;;14.99;21.15
64064;BME280;50314;50.618;10.642;2023-03-04T03:23:49;96996.91;;;14.98;21.17
64064;BME280;50314;50.618;10.642;2023-03-04T03:26:15;96994.25;;;14.98;20.89
64064;BME280;50314;50.618;10.642;2023-03-04T03:28:41;97000.41;;;14.99;21.29
64064;BME280;50314;50.618;10.642;2023-03-04T03:31:07;96992.44;;;14.99;20.97
64064;BME280;50314;50.618;10.642;2023-03-04T03:33:33;96988.13;;;14.98;20.86
64064;BME280;50314;50.618;10.642;2023-03-04T03:35:58;96989.09;;;14.97;21.15
64064;BME280;50314;50.618;10.642;2023-03-04T03:38:25;96982.97;;;14.96;20.94
64064;BME280;50314;50.618;10.642;2023-03-04T03:40:50;96985.47;;;14.98;21.33
64064;BME280;50314;50.618;10.642;2023-03-04T03:43:16;96978.50;;;14.97;20.85
64064;BME280;50314;50.618;10.642;2023-03-04T03:45:41;96987.41;;;14.96;21.14
64064;BME280;50314;50.618;10.642;2023-03-04T03:48:06;96981.25;;;14.95;21.30
64064;BME280;50314;50.618;10.642;2023-03-04T03:50:32;96974.28;;;14.94;21.34
64064;BME280;50314;50.618;10.642;2023-03-04T03:52:57;96976.94;;;14.94;21.22
64064;BME280;50314;50.618;10.642;2023-03-04T03:55:23;96977.78;;;14.95;21.29
64064;BME280;50314;50.618;10.642;2023-03-04T03:57:48;96981.41;;;14.94;21.02
64064;BME280;50314;50.618;10.642;2023-03-04T04:00:15;96968.28;;;14.92;21.33
64064;BME280;50314;50.618;10.642;2023-03-04T04:02:41;96976.22;;;14.92;21.10
64064;BME280;50314;50.618;10.642;2023-03-04T04:05:07;96963.94;;;14.91;21.00
64064;BME280;50314;50.618;10.642;2023-03-04T04:07:33;96969.25;;;14.91;21.31
64064;BME280;50314;50.618;10.642;2023-03-04T04:09:59;96975.66;;;14.89;21.09
64064;BME280;50314;50.618;10.642;2023-03-04T04:12:25;96971.19;;;14.89;21.16
64064;BME280;50314;50.618;10.642;2023-03-04T04:14:50;96971.19;;;14.89;21.40
64064;BME280;50314;50.618;10.642;2023-03-04T04:17:16;96973.84;;;14.89;20.99
64064;BME280;50314;50.618;10.642;2023-03-04T04:19:41;96981.78;;;14.89;21.45
64064;BME280;50314;50.618;10.642;2023-03-04T04:22:12;96986.41;;;14.87;21.16
64064;BME280;50314;50.618;10.642;2023-03-04T04:24:38;96993.38;;;14.88;21.22
64064;BME280;50314;50.618;10.642;2023-03-04T04:27:03;96984.59;;;14.88;21.36
64064;BME280;50314;50.618;10.642;2023-03-04T04:29:29;96985.44;;;14.88;20.99
64064;BME280;50314;50.618;10.642;2023-03-04T04:31:55;96989.06;;;14.87;21.44
64064;BME280;50314;50.618;10.642;2023-03-04T04:34:20;96987.41;;;14.86;20.93
64064;BME280;50314;50.618;10.642;2023-03-04T04:36:46;96978.47;;;14.87;21.35
64064;BME280;50314;50.618;10.642;2023-03-04T04:39:11;96978.47;;;14.87;21.44
64064;BME280;50314;50.618;10.642;2023-03-04T04:41:40;96980.38;;;14.85;21.20
64064;BME280;50314;50.618;10.642;2023-03-04T04:44:06;96976.78;;;14.86;21.35
64064;BME280;50314;50.618;10.642;2023-03-04T04:46:33;96987.50;;;14.85;21.28
64064;BME280;50314;50.618;10.642;2023-03-04T04:48:59;96999.94;;;14.84;21.44
64064;BME280;50314;50.618;10.642;2023-03-04T04:51:25;96985.97;;;14.82;21.31
64064;BME280;50314;50.618;10.642;2023-03-04T04:53:51;96982.34;;;14.83;21.30
64064;BME280;50314;50.618;10.642;2023-03-04T04:56:19;96985.00;;;14.83;21.22
64064;BME280;50314;50.618;10.642;2023-03-04T04:58:45;96988.59;;;14.82;21.40
64064;BME280;50314;50.618;10.642;2023-03-04T05:01:11;96980.66;;;14.82;21.42
64064;BME280;50314;50.618;10.642;2023-03-04T05:03:37;96984.28;;;14.81;21.19
64064;BME280;50314;50.618;10.642;2023-03-04T05:06:04;96989.59;;;14.81;21.53
64064;BME280;50314;50.618;10.642;2023-03-04T05:08:31;96979.97;;;14.80;21.31
64064;BME280;50314;50.618;10.642;2023-03-04T05:10:57;96984.44;;;14.79;21.25
64064;BME280;50314;50.618;10.642;2023-03-04T05:13:22;96976.47;;;14.79;21.27
64064;BME280;50314;50.618;10.642;2023-03-04T05:15:50;96978.25;;;14.79;21.58
64064;BME280;50314;50.618;10.642;2023-03-04T05:18:16;96983.44;;;14.80;21.48
64064;BME280;50314;50.618;10.642;2023-03-04T05:20:42;96989.75;;;14.79;21.33
64064;BME280;50314;50.618;10.642;2023-03-04T05:23:07;96984.56;;;14.78;21.32
64064;BME280;50314;50.618;10.642;2023-03-04T05:25:33;96982.88;;;14.77;21.33
64064;BME280;50314;50.618;10.642;2023-03-04T05:27:58;96981.22;;;14.76;21.20
64064;BME280;50314;50.618;10.642;2023-03-04T05:30:26;96977.56;;;14.77;21.23
64064;BME280;50314;50.618;10.642;2023-03-04T05:32:52;96977.69;;;14.75;21.61
64064;BME280;50314;50.618;10.642;2023-03-04T05:35:17;96975.03;;;14.75;21.42
64064;BME280;50314;50.618;10.642;2023-03-04T05:37:43;96976.84;;;14.75;21.23
64064;BME280;50314;50.618;10.642;2023-03-04T05:40:09;96984.81;;;14.75;21.16
64064;BME280;50314;50.618;10.642;2023-03-04T05:42:34;96976.03;;;14.74;21.62
64064;BME280;50314;50.618;10.642;2023-03-04T05:45:00;96983.16;;;14.74;21.30
64064;BME280;50314;50.618;10.642;2023-03-04T05:47:25;96988.44;;;14.74;21.16
64064;BME280;50314;50.618;10.642;2023-03-04T05:49:51;96984.81;;;14.75;21.63
64064;BME280;50314;50.618;10.642;2023-03-04T05:52:16;96977.84;;;14.74;21.50
64064;BME280;50314;50.618;10.642;2023-03-04T05:54:41;96988.31;;;14.75;21.29
64064;BME280;50314;50.618;10.642;2023-03-04T05:57:07;96985.78;;;14.74;21.26
64064;BME280;50314;50.618;10.642;2023-03-04T05:59:32;96988.44;;;14.74;21.20
64064;BME280;50314;50.618;10.642;2023-03-04T06:01:58;96985.78;;;14.74;21.55
64064;BME280;50314;50.618;10.642;2023-03-04T06:04:23;96991.09;;;14.74;21.20
64064;BME280;50314;50.618;10.642;2023-03-04T06:06:48;96994.72;;;14.73;21.20
64064;BME280;50314;50.618;10.642;2023-03-04T06:09:14;96992.06;;;14.73;21.48
64064;BME280;50314;50.618;10.642;2023-03-04T06:11:40;97003.63;;;14.72;21.52
64064;BME280;50314;50.618;10.642;2023-03-04T06:14:05;97000.03;;;14.73;21.55
64064;BME280;50314;50.618;10.642;2023-03-04T06:16:31;97008.00;;;14.73;21.27
64064;BME280;50314;50.618;10.642;2023-03-04T06:18:56;97008.00;;;14.73;21.59
64064;BME280;50314;50.618;10.642;2023-03-04T06:21:22;97000.88;;;14.73;21.57
64064;BME280;50314;50.618;10.642;2023-03-04T06:23:47;97007.13;;;14.72;21.65
64064;BME280;50314;50.618;10.642;2023-03-04T06:26:13;97001.69;;;14.74;21.58
64064;BME280;50314;50.618;10.642;2023-03-04T06:28:42;97012.31;;;14.74;21.34
64064;BME280;50314;50.618;10.642;2023-03-04T06:31:09;97016.78;;;14.73;21.13
64064;BME280;50314;50.618;10.642;2023-03-04T06:33:34;97016.78;;;14.73;21.20
64064;BME280;50314;50.618;10.642;2023-03-04T06:36:00;97027.50;;;14.72;21.42
64064;BME280;50314;50.618;10.642;2023-03-04T06:38:25;97019.44;;;14.73;21.24
64064;BME280;50314;50.618;10.642;2023-03-04T06:40:51;97021.09;;;14.74;21.33
64064;BME280;50314;50.618;10.642;2023-03-04T06:43:17;97025.41;;;14.75;21.56
64064;BME280;50314;50.618;10.642;2023-03-04T06:45:43;97031.59;;;14.76;21.49
64064;BME280;50314;50.618;10.642;2023-03-04T06:48:09;97035.06;;;14.76;21.29
64064;BME280;50314;50.618;10.642;2023-03-04T06:50:34;97034.09;;;14.77;21.50
64064;BME280;50314;50.618;10.642;2023-03-04T06:53:00;97044.56;;;14.79;21.57
64064;BME280;50314;50.618;10.642;2023-03-04T06:55:25;97045.41;;;14.79;21.13
64064;BME280;50314;50.618;10.642;2023-03-04T06:57:50;97036.59;;;14.79;21.48
64064;BME280;50314;50.618;10.642;2023-03-04T07:00:16;97033.94;;;14.79;21.16
64064;BME280;50314;50.618;10.642;2023-03-04T07:02:42;97040.22;;;14.78;21.61
64064;BME280;50314;50.618;10.642;2023-03-04T07:05:09;97041.22;;;14.77;21.32
64064;BME280;50314;50.618;10.642;2023-03-04T07:07:35;97042.03;;;14.77;21.39
64064;BME280;50314;50.618;10.642;2023-03-04T07:10:00;97045.53;;;14.78;21.65
64064;BME280;50314;50.618;10.642;2023-03-04T07:12:26;97043.72;;;14.78;21.60
64064;BME280;50314;50.618;10.642;2023-03-04T07:14:51;97043.72;;;14.78;21.61
64064;BME280;50314;50.618;10.642;2023-03-04T07:17:16;97046.25;;;14.80;21.70
64064;BME280;50314;50.618;10.642;2023-03-04T07:19:42;97042.63;;;14.81;21.29
64064;BME280;50314;50.618;10.642;2023-03-04T07:22:09;97041.63;;;14.82;21.54
64064;BME280;50314;50.618;10.642;2023-03-04T07:24:34;97034.66;;;14.81;21.27
64064;BME280;50314;50.618;10.642;2023-03-04T07:26:59;97039.00;;;14.82;21.52
64064;BME280;50314;50.618;10.642;2023-03-04T07:29:25;97039.97;;;14.81;21.54
64064;BME280;50314;50.618;10.642;2023-03-04T07:31:50;97043.47;;;14.82;21.64
64064;BME280;50314;50.618;10.642;2023-03-04T07:34:16;97044.28;;;14.82;21.35
64064;BME280;50314;50.618;10.642;2023-03-04T07:36:41;97042.63;;;14.81;21.28
64064;BME280;50314;50.618;10.642;2023-03-04T07:39:07;97047.78;;;14.83;21.25
64064;BME280;50314;50.618;10.642;2023-03-04T07:41:33;97044.28;;;14.82;21.28
64064;BME280;50314;50.618;10.642;2023-03-04T07:44:03;97041.63;;;14.82;21.36
64064;BME280;50314;50.618;10.642;2023-03-04T07:46:29;97041.63;;;14.82;21.56
64064;BME280;50314;50.618;10.642;2023-03-04T07:48:55;97041.63;;;14.82;21.37
64064;BME280;50314;50.618;10.642;2023-03-04T07:51:23;97040.69;;;14.83;21.63
64064;BME280;50314;50.618;10.642;2023-03-04T07:53:52;97035.25;;;14.85;21.28
64064;BME280;50314;50.618;10.642;2023-03-04T07:56:20;97038.72;;;14.85;21.68
64064;BME280;50314;50.618;10.642;2023-03-04T07:58:46;97035.97;;;14.87;21.54
64064;BME280;50314;50.618;10.642;2023-03-04T08:01:17;97039.72;;;14.84;21.53
64064;BME280;50314;50.618;10.642;2023-03-04T08:03:43;97054.53;;;14.87;21.42
64064;BME280;50314;50.618;10.642;2023-03-04T08:06:11;97050.06;;;14.87;21.50
64064;BME280;50314;50.618;10.642;2023-03-04T08:08:37;97050.06;;;14.87;21.41
64064;BME280;50314;50.618;10.642;2023-03-04T08:11:04;97048.25;;;14.88;21.82
64064;BME280;50314;50.618;10.642;2023-03-04T08:13:30;97047.00;;;14.92;21.69
64064;BME280;50314;50.618;10.642;2023-03-04T08:15:56;97052.19;;;14.93;21.58
64064;BME280;50314;50.618;10.642;2023-03-04T08:18:21;97055.53;;;14.95;21.49
64064;BME280;50314;50.618;10.642;2023-03-04T08:20:47;97055.53;;;14.95;21.71
64064;BME280;50314;50.618;10.642;2023-03-04T08:23:12;97051.94;;;14.96;21.93
64064;BME280;50314;50.618;10.642;2023-03-04T08:25:41;97057.22;;;14.96;21.74
64064;BME280;50314;50.618;10.642;2023-03-04T08:28:07;97055.25;;;14.98;21.83
64064;BME280;50314;50.618;10.642;2023-03-04T08:30:34;97049.84;;;15.00;21.91
64064;BME280;50314;50.618;10.642;2023-03-04T08:33:02;97048.03;;;15.00;21.64
64064;BME280;50314;50.618;10.642;2023-03-04T08:35:28;97049.69;;;15.01;21.65
64064;BME280;50314;50.618;10.642;2023-03-04T08:37:53;97039.66;;;15.05;21.72
64064;BME280;50314;50.618;10.642;2023-03-04T08:40:19;97056.41;;;15.06;21.51
64064;BME280;50314;50.618;10.642;2023-03-04T08:42:44;97050.16;;;15.07;21.53
64064;BME280;50314;50.618;10.642;2023-03-04T08:45:10;97047.50;;;15.07;21.39
64064;BME280;50314;50.618;10.642;2023-03-04T08:47:36;97046.63;;;15.06;21.50
64064;BME280;50314;50.618;10.642;2023-03-04T08:50:03;97048.19;;;15.09;21.75
64064;BME280;50314;50.618;10.642;2023-03-04T08:52:29;97048.03;;;15.00;21.59
64064;BME280;50314;50.618;10.642;2023-03-04T08:54:55;97042.06;;;15.08;21.67
64064;BME280;50314;50.618;10.642;2023-03-04T08:57:21;97045.44;;;15.10;21.35
64064;BME280;50314;50.618;10.642;2023-03-04T08:59:46;97043.59;;;15.11;21.68
64064;BME280;50314;50.618;10.642;2023-03-04T09:02:12;97040.81;;;15.12;21.61
64064;BME280;50314;50.618;10.642;2023-03-04T09:04:37;97040.81;;;15.12;21.70
64064;BME280;50314;50.618;10.642;2023-03-04T09:07:03;97039.97;;;15.12;21.41
64064;BME280;50314;50.618;10.642;2023-03-04T09:09:28;97040.69;;;15.14;21.66
64064;BME280;50314;50.618;10.642;2023-03-04T09:11:54;97038.88;;;15.14;21.78
64064;BME280;50314;50.618;10.642;2023-03-04T09:14:19;97039.69;;;15.15;21.59
64064;BME280;50314;50.618;10.642;2023-03-04T09:16:44;97046.69;;;15.16;21.58
64064;BME280;50314;50.618;10.642;2023-03-04T09:19:10;97037.78;;;15.17;21.77
64064;BME280;50314;50.618;10.642;2023-03-04T09:21:35;97038.47;;;15.19;21.40
64064;BME280;50314;50.618;10.642;2023-03-04T09:24:01;97042.81;;;15.20;21.58
64064;BME280;50314;50.618;10.642;2023-03-04T09:26:28;97041.00;;;15.20;21.55
64064;BME280;50314;50.618;10.642;2023-03-04T09:28:57;97043.66;;;15.20;21.66
64064;BME280;50314;50.618;10.642;2023-03-04T09:31:23;97043.66;;;15.20;21.83
64064;BME280;50314;50.618;10.642;2023-03-04T09:33:50;97039.19;;;15.21;21.66
64064;BME280;50314;50.618;10.642;2023-03-04T09:36:16;97038.06;;;15.23;21.90
64064;BME280;50314;50.618;10.642;2023-03-04T09:38:42;97047.72;;;15.24;21.65
64064;BME280;50314;50.618;10.642;2023-03-04T09:41:19;97042.25;;;15.26;21.77
64064;BME280;50314;50.618;10.642;2023-03-04T09:43:46;97047.56;;;15.26;21.71
64064;BME280;50314;50.618;10.642;2023-03-04T09:46:15;97045.75;;;15.26;21.65
64064;BME280;50314;50.618;10.642;2023-03-04T09:48:45;97038.66;;;15.27;21.48
64064;BME280;50314;50.618;10.642;2023-03-04T09:54:24;97035.53;;;15.22;21.34
64064;BME280;50314;50.618;10.642;2023-03-04T10:05:23;97028.03;;;15.27;21.35
64064;BME280;50314;50.618;10.642;2023-03-04T10:08:11;97029.25;;;15.23;21.72
64064;BME280;50314;50.618;10.642;2023-03-04T10:10:40;97031.25;;;15.31;21.47
64064;BME280;50314;50.618;10.642;2023-03-04T10:13:16;97026.06;;;15.29;21.51
64064;BME280;50314;50.618;10.642;2023-03-04T10:15:45;97031.09;;;15.32;21.37
64064;BME280;50314;50.618;10.642;2023-03-04T10:18:20;97028.34;;;15.34;21.45
64064;BME280;50314;50.618;10.642;2023-03-04T10:20:57;97025.78;;;15.32;21.37
64064;BME280;50314;50.618;10.642;2023-03-04T10:23:27;97023.72;;;15.36;21.37
64064;BME280;50314;50.618;10.642;2023-03-04T10:25:53;97024.53;;;15.36;21.51
64064;BME280;50314;50.618;10.642;2023-03-04T10:28:23;97021.88;;;15.36;21.38
64064;BME280;50314;50.618;10.642;2023-03-04T10:30:54;97027.91;;;15.38;21.35
64064;BME280;50314;50.618;10.642;2023-03-04T10:33:25;97019.94;;;15.38;21.36
64064;BME280;50314;50.618;10.642;2023-03-04T10:36:02;97021.06;;;15.36;21.57
64064;BME280;50314;50.618;10.642;2023-03-04T10:38:35;97017.28;;;15.38;21.31
64064;BME280;50314;50.618;10.642;2023-03-04T10:41:01;97024.19;;;15.41;21.58
64064;BME280;50314;50.618;10.642;2023-03-04T10:43:35;97018.72;;;15.42;21.51
64064;BME280;50314;50.618;10.642;2023-03-04T10:46:01;97023.91;;;15.44;21.53
64064;BME280;50314;50.618;10.642;2023-03-04T10:48:29;97015.81;;;15.45;21.25
64064;BME280;50314;50.618;10.642;2023-03-04T10:51:27;97003.78;;;15.41;21.51
64064;BME280;50314;50.618;10.642;2023-03-04T10:54:09;97008.81;;;15.44;21.45
64064;BME280;50314;50.618;10.642;2023-03-04T10:56:42;97006.84;;;15.46;21.40
64064;BME280;50314;50.618;10.642;2023-03-04T10:59:39;96996.81;;;15.40;21.18
64064;BME280;50314;50.618;10.642;2023-03-04T11:02:20;97004.63;;;15.42;21.28
64064;BME280;50314;50.618;10.642;2023-03-04T11:04:52;96998.22;;;15.44;21.01
64064;BME280;50314;50.618;10.642;2023-03-04T11:07:20;96996.25;;;15.46;21.10
64064;BME280;50314;50.618;10.642;2023-03-04T11:09:46;96990.81;;;15.48;21.12
64064;BME280;50314;50.618;10.642;2023-03-04T11:12:14;96989.00;;;15.48;21.23
64064;BME280;50314;50.618;10.642;2023-03-04T11:14:50;96988.28;;;15.46;21.20
64064;BME280;50314;50.618;10.642;2023-03-04T11:17:27;96982.00;;;15.47;20.97
64064;BME280;50314;50.618;10.642;2023-03-04T11:20:03;96980.19;;;15.48;21.23
64064;BME280;50314;50.618;10.642;2023-03-04T11:22:30;96983.41;;;15.52;21.21
64064;BME280;50314;50.618;10.642;2023-03-04T11:25:01;96973.63;;;15.52;21.28
64064;BME280;50314;50.618;10.642;2023-03-04T11:27:46;96979.09;;;15.50;21.38
64064;BME280;50314;50.618;10.642;2023-03-04T11:30:35;96974.72;;;15.49;21.22
64064;BME280;50314;50.618;10.642;2023-03-04T11:33:15;96976.16;;;15.54;21.34
64064;BME280;50314;50.618;10.642;2023-03-04T11:38:21;96973.19;;;15.57;21.50
64064;BME280;50314;50.618;10.642;2023-03-04T11:40:53;96969.59;;;15.58;21.19
64064;BME280;50314;50.618;10.642;2023-03-04T11:43:29;96975.75;;;15.58;21.38
64064;BME280;50314;50.618;10.642;2023-03-04T11:56:33;96958.13;;;15.67;21.38
64064;BME280;50314;50.618;10.642;2023-03-04T12:10:31;96939.84;;;15.64;21.66
64064;BME280;50314;50.618;10.642;2023-03-04T12:22:16;96929.78;;;15.67;21.48
64064;BME280;50314;50.618;10.642;2023-03-04T12:25:02;96933.94;;;15.70;21.78
64064;BME280;50314;50.618;10.642;2023-03-04T12:27:36;96928.91;;;15.67;21.40
64064;BME280;50314;50.618;10.642;2023-03-04T12:35:44;96921.94;;;15.76;21.50
64064;BME280;50314;50.618;10.642;2023-03-04T12:46:22;96911.03;;;15.79;21.43
64064;BME280;50314;50.618;10.642;2023-03-04T12:48:51;96911.59;;;15.82;21.50
64064;BME280;50314;50.618;10.642;2023-03-04T12:59:36;96903.63;;;15.82;21.50
64064;BME280;50314;50.618;10.642;2023-03-04T13:05:14;96894.28;;;15.78;21.70
64064;BME280;50314;50.618;10.642;2023-03-04T13:07:58;96892.00;;;15.83;21.61
64064;BME280;50314;50.618;10.642;2023-03-04T13:10:26;96897.03;;;15.86;21.64
64064;BME280;50314;50.618;10.642;2023-03-04T13:13:00;96892.44;;;15.88;21.64
64064;BME280;50314;50.618;10.642;2023-03-04T13:15:27;96886.16;;;15.80;21.84
64064;BME280;50314;50.618;10.642;2023-03-04T13:17:55;96893.72;;;15.84;21.75
64064;BME280;50314;50.618;10.642;2023-03-04T13:20:32;96889.06;;;15.86;22.06
64064;BME280;50314;50.618;10.642;2023-03-04T13:23:03;96880.81;;;15.89;21.95
64064;BME280;50314;50.618;10.642;2023-03-04T13:26:18;96878.88;;;15.91;22.47
64064;BME280;50314;50.618;10.642;2023-03-04T13:28:51;96881.38;;;16.03;22.26
64064;BME280;50314;50.618;10.642;2023-03-04T13:31:20;96881.47;;;16.11;22.28
64064;BME280;50314;50.618;10.642;2023-03-04T13:33:50;96879.81;;;16.19;22.34
64064;BME280;50314;50.618;10.642;2023-03-04T13:36:50;96872.25;;;16.25;22.39
64064;BME280;50314;50.618;10.642;2023-03-04T13:41:47;96877.50;;;16.44;22.34
64064;BME280;50314;50.618;10.642;2023-03-04T13:44:34;96867.41;;;16.48;22.47
64064;BME280;50314;50.618;10.642;2023-03-04T13:47:20;96871.56;;;16.60;22.45
64064;BME280;50314;50.618;10.642;2023-03-04T13:49:47;96868.84;;;16.70;22.11
64064;BME280;50314;50.618;10.642;2023-03-04T14:02:33;96865.00;;;17.09;22.28
64064;BME280;50314;50.618;10.642;2023-03-04T14:05:00;96855.56;;;17.15;22.05
64064;BME280;50314;50.618;10.642;2023-03-04T14:07:34;96851.47;;;17.21;22.38
64064;BME280;50314;50.618;10.642;2023-03-04T14:12:34;96841.00;;;17.37;22.27
64064;BME280;50314;50.618;10.642;2023-03-04T14:15:03;96841.03;;;17.45;22.09
64064;BME280;50314;50.618;10.642;2023-03-04T14:17:32;96837.69;;;17.53;22.06
64064;BME280;50314;50.618;10.642;2023-03-04T14:20:01;96828.91;;;17.60;21.89
64064;BME280;50314;50.618;10.642;2023-03-04T14:22:31;96839.59;;;17.69;22.01
64064;BME280;50314;50.618;10.642;2023-03-04T14:25:27;96835.63;;;17.73;22.14